Terminal Aerodrome Forecast
Issued by NWS Duluth, MN

Home | Current Version | Previous Version | Text Only | Print | Product List | Glossary On
Versions: 1 2 3 4 5 6 7 8 9 10 11 12 13 14 15 16 17 18 19 20 21 22 23 24 25 26 27 28 29 30
000
FTUS43 KDLH 240520
TAFDLH
TAF
KDLH 240520Z 2406/2506 09014G20KT P6SM BKN100
     FM240800 09016G24KT P6SM SCT015 BKN100
      TEMPO 2409/2413 5SM BR BKN009
     FM242100 11015G23KT P6SM BKN060
     FM250300 10009KT P6SM VCSH BKN025 OVC040=

USA.gov is the U.S. government's official web portal to all federal, state and local government web resources and services.